Time;durP1;ratioP1;P1;durP2;ratioP2;P2;SDS_P1;SDS_P2;PMS_P1;PMS_P2;Temp;Humidity;BMP_temperature;BMP_pressure;BME280_temperature;BME280_humidity;BME280_pressure;Samples;Min_cycle;Max_cycle;Signal;HPM_P1;HPM_P2
2022/12/16 00:01:22;;;;;;;61.42;28.65;;;-2.10;25.30;;;;;;7360381;19;20086;-74
2022/12/16 00:03:54;;;;;;;58.97;28.58;;;-2.20;24.30;;;;;;7361282;19;20026;-74
2022/12/16 00:06:26;;;;;;;60.33;29.80;;;-2.20;24.90;;;;;;7365233;19;20046;-74
2022/12/16 00:08:56;;;;;;;58.70;27.63;;;-2.20;25.00;;;;;;7362174;19;20022;-75
2022/12/16 00:11:26;;;;;;;64.55;29.33;;;-2.20;25.30;;;;;;7362237;19;20020;-76
2022/12/16 00:13:58;;;;;;;63.17;29.15;;;-2.20;25.70;;;;;;7378643;19;20782;-74
2022/12/16 00:16:28;;;;;;;61.97;28.38;;;-2.20;26.00;;;;;;7363697;19;20086;-74
2022/12/16 00:18:58;;;;;;;58.05;29.30;;;-2.20;24.10;;;;;;7361946;19;20506;-73
2022/12/16 00:21:28;;;;;;;61.35;28.73;;;-2.20;24.60;;;;;;7362333;19;20014;-75
2022/12/16 00:23:58;;;;;;;52.53;26.48;;;-2.20;24.40;;;;;;7357293;19;20506;-76
2022/12/16 00:26:30;;;;;;;55.08;27.58;;;-2.20;24.70;;;;;;7364607;19;20208;-75
2022/12/16 00:29:04;;;;;;;59.60;30.58;;;-2.10;24.80;;;;;;7382488;19;20015;-74
2022/12/16 00:31:34;;;;;;;59.50;28.55;;;-2.20;23.90;;;;;;7361932;19;20014;-74
2022/12/16 00:34:04;;;;;;;58.55;28.10;;;-2.20;24.00;;;;;;7354528;19;20022;-73
2022/12/16 00:36:34;;;;;;;65.38;29.58;;;-2.20;24.60;;;;;;7362689;19;20848;-74
2022/12/16 00:39:03;;;;;;;58.28;26.08;;;-2.20;24.40;;;;;;7360232;19;20014;-74
2022/12/16 00:41:33;;;;;;;52.50;27.45;;;-2.10;24.60;;;;;;7361189;19;20039;-75
2022/12/16 00:44:06;;;;;;;56.60;27.40;;;-2.10;22.90;;;;;;7377830;19;20018;-74
2022/12/16 00:46:37;;;;;;;58.72;29.10;;;-2.10;24.10;;;;;;7362639;19;20546;-74
2022/12/16 00:49:07;;;;;;;53.63;27.75;;;-2.10;24.10;;;;;;7359383;19;20011;-77
2022/12/16 00:51:36;;;;;;;51.03;25.67;;;-2.20;24.30;;;;;;7361774;19;20014;-76
2022/12/16 00:54:07;;;;;;;58.70;28.52;;;-2.10;25.10;;;;;;7355914;19;20010;-74
2022/12/16 00:56:37;;;;;;;60.72;28.55;;;-2.10;25.20;;;;;;7361689;19;20023;-75
2022/12/16 00:59:09;;;;;;;59.20;28.30;;;-2.10;25.40;;;;;;7380779;19;20019;-75
2022/12/16 01:01:39;;;;;;;61.67;28.88;;;-2.20;24.70;;;;;;7362433;19;20055;-74
2022/12/16 01:04:09;;;;;;;57.33;28.40;;;-2.30;25.00;;;;;;7357355;19;20014;-74
2022/12/16 01:06:39;;;;;;;55.88;28.27;;;-2.20;25.20;;;;;;7364930;19;20006;-74
2022/12/16 01:09:09;;;;;;;53.90;27.52;;;-2.20;25.10;;;;;;7364668;19;20010;-73
2022/12/16 01:11:39;;;;;;;57.42;28.95;;;-2.30;25.20;;;;;;7364194;19;20086;-75
2022/12/16 01:14:11;;;;;;;56.85;28.17;;;-2.30;26.10;;;;;;7376814;19;20011;-74
2022/12/16 01:16:41;;;;;;;58.95;29.27;;;-2.30;26.10;;;;;;7366800;19;20010;-74
2022/12/16 01:19:12;;;;;;;57.63;28.80;;;-2.30;26.90;;;;;;7393106;19;20063;-73
2022/12/16 01:21:43;;;;;;;62.03;29.10;;;-2.20;27.30;;;;;;7404586;19;20007;-72
2022/12/16 01:24:14;;;;;;;62.35;27.90;;;-2.20;27.30;;;;;;7382255;19;20581;-74
2022/12/16 01:26:44;;;;;;;62.55;29.33;;;-2.30;27.30;;;;;;7374498;19;20018;-73
2022/12/16 01:29:17;;;;;;;54.25;27.95;;;-2.30;28.10;;;;;;7390216;19;20007;-73
2022/12/16 01:31:47;;;;;;;59.35;29.20;;;-2.30;28.20;;;;;;7369977;19;20014;-73
2022/12/16 01:34:17;;;;;;;55.85;27.55;;;-2.20;28.50;;;;;;7362241;19;20039;-74
2022/12/16 01:36:47;;;;;;;61.22;30.50;;;-2.20;28.40;;;;;;7368263;19;20061;-74
2022/12/16 01:39:17;;;;;;;63.58;29.33;;;-2.20;28.50;;;;;;7365003;19;20018;-74
2022/12/16 01:41:46;;;;;;;56.53;29.25;;;-2.20;28.50;;;;;;7368758;19;20019;-73
2022/12/16 01:44:22;;;;;;;59.72;28.55;;;-2.20;28.50;;;;;;7380474;19;20021;-75
2022/12/16 01:46:55;;;;;;;59.80;29.80;;;-2.20;28.50;;;;;;7390455;19;20018;-73
2022/12/16 01:49:29;;;;;;;57.90;28.42;;;-2.20;28.50;;;;;;7362943;19;20014;-75
2022/12/16 01:52:00;;;;;;;;;;;-2.20;28.50;;;;;;7367861;19;20609;-74
2022/12/16 01:54:36;;;;;;;63.58;30.90;;;-2.20;28.40;;;;;;7361912;19;19978;-74
2022/12/16 01:57:10;;;;;;;61.08;29.90;;;-2.20;28.50;;;;;;7368236;19;20066;-74
2022/12/16 01:59:48;;;;;;;59.08;31.58;;;-2.20;29.10;;;;;;7364151;19;20014;-74
2022/12/16 02:02:18;;;;;;;63.10;29.08;;;-2.20;29.10;;;;;;7369972;19;20042;-74
2022/12/16 02:07:31;;;;;;;57.22;29.13;;;-2.30;28.50;;;;;;7366430;19;20608;-74
2022/12/16 02:10:01;;;;;;;60.53;29.90;;;-2.30;29.00;;;;;;7364077;19;20485;-74
2022/12/16 02:12:40;;;;;;;57.90;29.95;;;-2.20;28.80;;;;;;7367122;19;20006;-75
2022/12/16 02:15:24;;;;;;;63.40;29.33;;;-2.30;29.00;;;;;;7363226;19;20010;-73
2022/12/16 02:18:01;;;;;;;59.83;28.05;;;-2.20;29.60;;;;;;7368512;19;20287;-74
2022/12/16 02:21:06;;;;;;;61.08;29.00;;;-2.20;29.20;;;;;;7361556;19;20034;-74
2022/12/16 02:23:44;;;;;;;;;;;-2.30;28.90;;;;;;7363042;19;20020;-74
2022/12/16 02:26:52;;;;;;;62.15;30.98;;;-2.30;29.10;;;;;;7389733;19;20469;-74
2022/12/16 02:29:56;;;;;;;59.00;30.08;;;-2.20;29.40;;;;;;7261519;19;2004404;-73
2022/12/16 02:32:33;;;;;;;61.58;28.45;;;-2.20;29.20;;;;;;7367850;19;20088;-73
2022/12/16 02:35:11;;;;;;;58.95;29.20;;;-2.20;29.50;;;;;;7387791;19;20007;-74
2022/12/16 02:37:47;;;;;;;63.22;30.85;;;-2.30;29.50;;;;;;7367842;19;20021;-75
2022/12/16 02:40:24;;;;;;;62.70;29.63;;;-2.20;29.70;;;;;;7360782;19;20553;-74
2022/12/16 02:42:59;;;;;;;60.35;30.17;;;-2.20;29.70;;;;;;7366036;19;20513;-74
2022/12/16 02:45:32;;;;;;;59.38;29.52;;;-2.20;29.80;;;;;;7365900;19;20029;-75
2022/12/16 02:48:05;;;;;;;58.25;29.95;;;-2.20;29.30;;;;;;7367415;19;20086;-74
2022/12/16 02:50:40;;;;;;;61.50;29.67;;;-2.20;29.50;;;;;;7360000;19;20042;-75
2022/12/16 02:53:11;;;;;;;58.58;30.02;;;-2.20;29.70;;;;;;7389244;19;20014;-75
2022/12/16 02:55:51;;;;;;;56.97;27.50;;;-2.20;29.60;;;;;;7363240;19;20010;-75
2022/12/16 02:58:27;;;;;;;58.83;28.23;;;-2.30;29.10;;;;;;7365688;19;20347;-73
2022/12/16 03:01:07;;;;;;;54.85;27.95;;;-2.20;29.30;;;;;;7361957;19;20014;-74
2022/12/16 03:03:45;;;;;;;60.30;29.67;;;-2.20;29.60;;;;;;7364469;19;20019;-75
2022/12/16 03:06:20;;;;;;;54.33;27.38;;;-2.30;28.70;;;;;;7366771;19;20449;-75
2022/12/16 03:08:53;;;;;;;56.95;27.80;;;-2.30;28.70;;;;;;7362304;19;20023;-75
2022/12/16 03:11:23;;;;;;;62.80;28.55;;;-2.20;29.50;;;;;;7360881;19;20025;-74
2022/12/16 03:13:56;;;;;;;52.72;27.25;;;-2.20;29.10;;;;;;7386322;19;20018;-75
2022/12/16 03:16:31;;;;;;;52.67;26.17;;;-2.20;29.10;;;;;;7366142;19;20482;-75
2022/12/16 03:19:07;;;;;;;49.03;25.42;;;-2.20;29.20;;;;;;7362935;19;20458;-74
2022/12/16 03:21:43;;;;;;;50.80;25.77;;;-2.20;28.40;;;;;;7360409;19;20006;-75
2022/12/16 03:24:15;;;;;;;47.80;24.30;;;-2.20;28.50;;;;;;7364921;19;20006;-74
2022/12/16 03:26:52;;;;;;;45.78;25.35;;;-2.20;28.50;;;;;;7364838;19;20024;-75
2022/12/16 03:29:28;;;;;;;50.38;25.08;;;-2.10;28.50;;;;;;7362108;19;20082;-74
2022/12/16 03:32:02;;;;;;;43.97;22.85;;;-2.20;27.90;;;;;;7384568;19;20546;-74
2022/12/16 03:34:39;;;;;;;42.55;22.55;;;-2.30;27.20;;;;;;7362331;19;20021;-75
2022/12/16 03:37:11;;;;;;;43.08;21.98;;;-2.30;27.30;;;;;;7364366;19;20150;-75
2022/12/16 03:39:45;;;;;;;43.90;22.63;;;-2.30;27.00;;;;;;7360461;19;20010;-74
2022/12/16 03:42:17;;;;;;;46.03;24.13;;;-2.30;26.90;;;;;;7362536;19;20011;-74
2022/12/16 03:44:48;;;;;;;49.45;24.45;;;-2.30;27.50;;;;;;7361051;19;20398;-74
2022/12/16 03:47:18;;;;;;;44.47;23.75;;;-2.20;28.10;;;;;;7366349;19;20018;-74
2022/12/16 03:49:55;;;;;;;;;;;-2.30;27.20;;;;;;7382710;19;20048;-75
2022/12/16 03:52:25;;;;;;;44.72;22.35;;;-2.40;26.90;;;;;;7363683;19;20300;-75
2022/12/16 03:54:54;;;;;;;38.28;21.60;;;-2.30;27.00;;;;;;7361767;19;20010;-75
2022/12/16 03:57:25;;;;;;;42.03;22.38;;;-2.30;27.30;;;;;;7363902;19;20761;-74
2022/12/16 03:59:55;;;;;;;44.67;23.75;;;-2.30;27.20;;;;;;7360088;19;20003;-74
2022/12/16 04:02:25;;;;;;;48.17;23.88;;;-2.20;28.10;;;;;;7368910;19;20034;-74
2022/12/16 04:04:57;;;;;;;41.70;22.63;;;-2.30;27.50;;;;;;7382010;19;20105;-74
2022/12/16 04:07:27;;;;;;;44.75;23.17;;;-2.30;28.30;;;;;;7363409;19;20034;-74
2022/12/16 04:09:57;;;;;;;46.40;23.02;;;-2.30;28.40;;;;;;7359595;19;20077;-74
2022/12/16 04:26:08;;;;;;;42.20;21.42;;;-2.30;27.50;;;;;;7391293;19;20014;-72
2022/12/16 04:28:38;;;;;;;49.58;22.70;;;-2.30;27.80;;;;;;7361912;19;20018;-74
2022/12/16 04:31:08;;;;;;;46.25;23.38;;;-2.20;27.90;;;;;;7356678;19;20035;-74
